sensor_id;sensor_type;location;lat;lon;timestamp;P1;durP1;ratioP1;P2;durP2;ratioP2
13079;SDS011;6606;49.154;9.280;2022-09-01T00:00:05;6.43;;;5.83;;
13079;SDS011;6606;49.154;9.280;2022-09-01T00:02:35;5.90;;;5.40;;
13079;SDS011;6606;49.154;9.280;2022-09-01T00:05:02;6.27;;;5.67;;
13079;SDS011;6606;49.154;9.280;2022-09-01T00:07:32;5.87;;;5.27;;
13079;SDS011;6606;49.154;9.280;2022-09-01T00:10:00;6.10;;;5.27;;
13079;SDS011;6606;49.154;9.280;2022-09-01T00:12:29;5.33;;;4.83;;
13079;SDS011;6606;49.154;9.280;2022-09-01T00:14:56;6.60;;;6.00;;
13079;SDS011;6606;49.154;9.280;2022-09-01T00:17:22;6.83;;;5.77;;
13079;SDS011;6606;49.154;9.280;2022-09-01T00:19:50;7.03;;;6.03;;
13079;SDS011;6606;49.154;9.280;2022-09-01T00:22:16;6.13;;;5.60;;
13079;SDS011;6606;49.154;9.280;2022-09-01T00:24:43;6.13;;;5.53;;
13079;SDS011;6606;49.154;9.280;2022-09-01T00:27:10;6.77;;;5.63;;
13079;SDS011;6606;49.154;9.280;2022-09-01T00:29:38;7.40;;;5.57;;
13079;SDS011;6606;49.154;9.280;2022-09-01T00:32:05;9.97;;;6.40;;
13079;SDS011;6606;49.154;9.280;2022-09-01T00:34:31;6.67;;;5.67;;
13079;SDS011;6606;49.154;9.280;2022-09-01T00:36:58;8.47;;;5.97;;
13079;SDS011;6606;49.154;9.280;2022-09-01T00:39:25;6.20;;;5.53;;
13079;SDS011;6606;49.154;9.280;2022-09-01T00:41:51;6.70;;;6.03;;
13079;SDS011;6606;49.154;9.280;2022-09-01T00:44:19;8.60;;;5.70;;
13079;SDS011;6606;49.154;9.280;2022-09-01T00:46:53;6.57;;;5.23;;
13079;SDS011;6606;49.154;9.280;2022-09-01T00:49:23;7.07;;;6.37;;
13079;SDS011;6606;49.154;9.280;2022-09-01T00:51:56;6.97;;;6.27;;
13079;SDS011;6606;49.154;9.280;2022-09-01T00:54:27;5.97;;;5.47;;
13079;SDS011;6606;49.154;9.280;2022-09-01T00:56:55;6.70;;;5.70;;
13079;SDS011;6606;49.154;9.280;2022-09-01T00:59:23;6.80;;;6.10;;
13079;SDS011;6606;49.154;9.280;2022-09-01T01:01:53;7.13;;;6.30;;
13079;SDS011;6606;49.154;9.280;2022-09-01T01:04:20;6.10;;;5.53;;
13079;SDS011;6606;49.154;9.280;2022-09-01T01:06:49;7.83;;;6.20;;
13079;SDS011;6606;49.154;9.280;2022-09-01T01:09:23;6.37;;;5.77;;
13079;SDS011;6606;49.154;9.280;2022-09-01T01:11:51;6.53;;;5.77;;
13079;SDS011;6606;49.154;9.280;2022-09-01T01:14:18;7.83;;;6.17;;
13079;SDS011;6606;49.154;9.280;2022-09-01T01:16:45;7.03;;;6.23;;
13079;SDS011;6606;49.154;9.280;2022-09-01T01:19:16;8.53;;;6.87;;
13079;SDS011;6606;49.154;9.280;2022-09-01T01:22:04;8.10;;;7.40;;
13079;SDS011;6606;49.154;9.280;2022-09-01T01:24:54;7.70;;;7.00;;
13079;SDS011;6606;49.154;9.280;2022-09-01T01:27:22;10.27;;;7.33;;
13079;SDS011;6606;49.154;9.280;2022-09-01T01:29:49;6.33;;;5.73;;
13079;SDS011;6606;49.154;9.280;2022-09-01T01:32:19;6.77;;;6.07;;
13079;SDS011;6606;49.154;9.280;2022-09-01T01:34:45;9.57;;;7.57;;
13079;SDS011;6606;49.154;9.280;2022-09-01T01:37:12;13.00;;;10.10;;
13079;SDS011;6606;49.154;9.280;2022-09-01T01:39:40;10.50;;;9.37;;
13079;SDS011;6606;49.154;9.280;2022-09-01T01:42:09;10.80;;;8.83;;
13079;SDS011;6606;49.154;9.280;2022-09-01T01:44:37;8.77;;;7.97;;
13079;SDS011;6606;49.154;9.280;2022-09-01T01:47:05;8.77;;;7.93;;
13079;SDS011;6606;49.154;9.280;2022-09-01T01:49:37;10.53;;;9.17;;
13079;SDS011;6606;49.154;9.280;2022-09-01T01:52:08;13.67;;;9.97;;
13079;SDS011;6606;49.154;9.280;2022-09-01T01:54:40;11.03;;;8.90;;
13079;SDS011;6606;49.154;9.280;2022-09-01T01:57:09;10.30;;;9.23;;
13079;SDS011;6606;49.154;9.280;2022-09-01T01:59:39;10.40;;;9.23;;
13079;SDS011;6606;49.154;9.280;2022-09-01T02:02:06;11.40;;;9.37;;
13079;SDS011;6606;49.154;9.280;2022-09-01T02:04:34;11.03;;;9.80;;
13079;SDS011;6606;49.154;9.280;2022-09-01T02:07:07;11.27;;;9.53;;
13079;SDS011;6606;49.154;9.280;2022-09-01T02:09:37;11.70;;;10.47;;
13079;SDS011;6606;49.154;9.280;2022-09-01T02:12:06;11.80;;;10.60;;
13079;SDS011;6606;49.154;9.280;2022-09-01T02:14:35;10.73;;;9.63;;
13079;SDS011;6606;49.154;9.280;2022-09-01T02:17:03;13.10;;;11.90;;
13079;SDS011;6606;49.154;9.280;2022-09-01T02:19:32;10.20;;;8.93;;
13079;SDS011;6606;49.154;9.280;2022-09-01T02:22:00;9.87;;;8.87;;
13079;SDS011;6606;49.154;9.280;2022-09-01T02:24:27;10.83;;;9.77;;
13079;SDS011;6606;49.154;9.280;2022-09-01T02:26:56;12.33;;;11.03;;
13079;SDS011;6606;49.154;9.280;2022-09-01T02:29:24;12.43;;;10.73;;
13079;SDS011;6606;49.154;9.280;2022-09-01T02:31:55;11.73;;;10.60;;
13079;SDS011;6606;49.154;9.280;2022-09-01T02:34:24;11.87;;;10.77;;
13079;SDS011;6606;49.154;9.280;2022-09-01T02:36:54;11.97;;;10.77;;
13079;SDS011;6606;49.154;9.280;2022-09-01T02:39:24;10.37;;;9.43;;
13079;SDS011;6606;49.154;9.280;2022-09-01T02:41:52;12.07;;;9.87;;
13079;SDS011;6606;49.154;9.280;2022-09-01T02:44:23;11.07;;;9.67;;
13079;SDS011;6606;49.154;9.280;2022-09-01T02:46:52;10.43;;;9.27;;
13079;SDS011;6606;49.154;9.280;2022-09-01T02:49:23;11.23;;;9.53;;
13079;SDS011;6606;49.154;9.280;2022-09-01T02:51:52;10.50;;;8.80;;
13079;SDS011;6606;49.154;9.280;2022-09-01T02:54:25;11.90;;;10.70;;
13079;SDS011;6606;49.154;9.280;2022-09-01T02:56:54;13.80;;;9.70;;
13079;SDS011;6606;49.154;9.280;2022-09-01T02:59:22;11.70;;;10.50;;
13079;SDS011;6606;49.154;9.280;2022-09-01T03:01:52;11.40;;;9.60;;
13079;SDS011;6606;49.154;9.280;2022-09-01T03:04:19;11.93;;;10.63;;
13079;SDS011;6606;49.154;9.280;2022-09-01T03:06:49;10.10;;;9.10;;
13079;SDS011;6606;49.154;9.280;2022-09-01T03:09:19;10.03;;;9.03;;
13079;SDS011;6606;49.154;9.280;2022-09-01T03:11:47;11.13;;;10.03;;
13079;SDS011;6606;49.154;9.280;2022-09-01T03:14:19;10.37;;;9.23;;
13079;SDS011;6606;49.154;9.280;2022-09-01T03:16:46;11.47;;;9.93;;
13079;SDS011;6606;49.154;9.280;2022-09-01T03:19:13;9.70;;;8.80;;
13079;SDS011;6606;49.154;9.280;2022-09-01T03:21:42;10.47;;;9.37;;
13079;SDS011;6606;49.154;9.280;2022-09-01T03:24:13;11.43;;;9.57;;
13079;SDS011;6606;49.154;9.280;2022-09-01T03:26:43;10.53;;;9.43;;
13079;SDS011;6606;49.154;9.280;2022-09-01T03:29:26;12.33;;;9.63;;
13079;SDS011;6606;49.154;9.280;2022-09-01T03:31:53;10.63;;;9.53;;
13079;SDS011;6606;49.154;9.280;2022-09-01T03:34:19;10.13;;;9.03;;
13079;SDS011;6606;49.154;9.280;2022-09-01T03:36:49;9.83;;;8.67;;
13079;SDS011;6606;49.154;9.280;2022-09-01T03:39:24;9.17;;;8.30;;
13079;SDS011;6606;49.154;9.280;2022-09-01T03:41:51;11.33;;;8.40;;
13079;SDS011;6606;49.154;9.280;2022-09-01T03:44:20;14.23;;;12.77;;
13079;SDS011;6606;49.154;9.280;2022-09-01T03:46:47;13.53;;;11.10;;
13079;SDS011;6606;49.154;9.280;2022-09-01T03:49:13;9.80;;;8.90;;
13079;SDS011;6606;49.154;9.280;2022-09-01T03:51:50;13.10;;;9.90;;
13079;SDS011;6606;49.154;9.280;2022-09-01T03:54:19;11.17;;;8.87;;
13079;SDS011;6606;49.154;9.280;2022-09-01T03:56:51;11.30;;;10.00;;
13079;SDS011;6606;49.154;9.280;2022-09-01T03:59:19;11.77;;;9.50;;
13079;SDS011;6606;49.154;9.280;2022-09-01T04:01:46;10.60;;;9.30;;
13079;SDS011;6606;49.154;9.280;2022-09-01T04:04:14;10.63;;;9.53;;
13079;SDS011;6606;49.154;9.280;2022-09-01T04:06:42;12.00;;;10.80;;
13079;SDS011;6606;49.154;9.280;2022-09-01T04:09:11;13.83;;;10.93;;
13079;SDS011;6606;49.154;9.280;2022-09-01T04:11:41;11.53;;;10.33;;
13079;SDS011;6606;49.154;9.280;2022-09-01T04:14:11;11.03;;;9.93;;
13079;SDS011;6606;49.154;9.280;2022-09-01T04:16:39;15.80;;;12.27;;
13079;SDS011;6606;49.154;9.280;2022-09-01T04:19:24;12.17;;;10.60;;
13079;SDS011;6606;49.154;9.280;2022-09-01T04:21:53;14.60;;;12.30;;
13079;SDS011;6606;49.154;9.280;2022-09-01T04:24:22;14.83;;;13.30;;
13079;SDS011;6606;49.154;9.280;2022-09-01T04:26:52;16.13;;;14.30;;
13079;SDS011;6606;49.154;9.280;2022-09-01T04:29:22;15.37;;;13.00;;
13079;SDS011;6606;49.154;9.280;2022-09-01T04:31:52;14.80;;;13.23;;
13079;SDS011;6606;49.154;9.280;2022-09-01T04:34:19;16.67;;;14.77;;
13079;SDS011;6606;49.154;9.280;2022-09-01T04:36:47;13.73;;;12.03;;
13079;SDS011;6606;49.154;9.280;2022-09-01T04:39:16;15.30;;;13.80;;
13079;SDS011;6606;49.154;9.280;2022-09-01T04:41:43;15.27;;;13.77;;
13079;SDS011;6606;49.154;9.280;2022-09-01T04:44:11;16.33;;;14.63;;
13079;SDS011;6606;49.154;9.280;2022-09-01T04:46:45;17.27;;;14.37;;
13079;SDS011;6606;49.154;9.280;2022-09-01T04:49:15;15.23;;;13.33;;
13079;SDS011;6606;49.154;9.280;2022-09-01T04:51:47;16.73;;;14.63;;
13079;SDS011;6606;49.154;9.280;2022-09-01T04:54:16;17.40;;;15.47;;
13079;SDS011;6606;49.154;9.280;2022-09-01T04:56:45;16.87;;;15.10;;
13079;SDS011;6606;49.154;9.280;2022-09-01T04:59:15;16.80;;;15.00;;
13079;SDS011;6606;49.154;9.280;2022-09-01T05:01:50;18.67;;;16.70;;
13079;SDS011;6606;49.154;9.280;2022-09-01T05:04:19;19.80;;;17.70;;
13079;SDS011;6606;49.154;9.280;2022-09-01T05:06:49;19.20;;;16.87;;
13079;SDS011;6606;49.154;9.280;2022-09-01T05:09:18;18.50;;;16.20;;
13079;SDS011;6606;49.154;9.280;2022-09-01T05:12:08;18.87;;;15.63;;
13079;SDS011;6606;49.154;9.280;2022-09-01T05:14:42;20.87;;;17.20;;
13079;SDS011;6606;49.154;9.280;2022-09-01T05:17:16;17.83;;;15.70;;
13079;SDS011;6606;49.154;9.280;2022-09-01T05:19:45;19.97;;;16.50;;
13079;SDS011;6606;49.154;9.280;2022-09-01T05:22:13;18.37;;;16.23;;
13079;SDS011;6606;49.154;9.280;2022-09-01T05:24:52;17.80;;;14.60;;
13079;SDS011;6606;49.154;9.280;2022-09-01T05:27:18;17.53;;;15.53;;
13079;SDS011;6606;49.154;9.280;2022-09-01T05:29:46;17.93;;;15.77;;
13079;SDS011;6606;49.154;9.280;2022-09-01T05:32:15;23.00;;;16.97;;
13079;SDS011;6606;49.154;9.280;2022-09-01T05:34:42;20.47;;;17.00;;
13079;SDS011;6606;49.154;9.280;2022-09-01T05:37:10;17.80;;;15.17;;
13079;SDS011;6606;49.154;9.280;2022-09-01T05:39:39;18.40;;;16.40;;
13079;SDS011;6606;49.154;9.280;2022-09-01T05:42:06;15.97;;;14.33;;
13079;SDS011;6606;49.154;9.280;2022-09-01T05:44:34;18.73;;;16.10;;
13079;SDS011;6606;49.154;9.280;2022-09-01T05:47:02;18.93;;;16.80;;
13079;SDS011;6606;49.154;9.280;2022-09-01T05:49:31;17.63;;;15.73;;
13079;SDS011;6606;49.154;9.280;2022-09-01T05:52:01;17.67;;;15.77;;
13079;SDS011;6606;49.154;9.280;2022-09-01T05:54:29;15.53;;;13.83;;
13079;SDS011;6606;49.154;9.280;2022-09-01T05:56:57;17.97;;;15.07;;
13079;SDS011;6606;49.154;9.280;2022-09-01T05:59:26;16.33;;;13.73;;
13079;SDS011;6606;49.154;9.280;2022-09-01T06:01:58;14.80;;;12.70;;
13079;SDS011;6606;49.154;9.280;2022-09-01T06:04:25;15.37;;;13.77;;
13079;SDS011;6606;49.154;9.280;2022-09-01T06:07:01;14.90;;;13.30;;
13079;SDS011;6606;49.154;9.280;2022-09-01T06:09:36;14.50;;;13.00;;
13079;SDS011;6606;49.154;9.280;2022-09-01T06:12:04;14.70;;;12.57;;
13079;SDS011;6606;49.154;9.280;2022-09-01T06:14:30;13.73;;;11.35;;
13079;SDS011;6606;49.154;9.280;2022-09-01T06:16:57;13.40;;;12.00;;
13079;SDS011;6606;49.154;9.280;2022-09-01T06:19:24;15.30;;;12.40;;
13079;SDS011;6606;49.154;9.280;2022-09-01T06:21:51;13.37;;;11.97;;
13079;SDS011;6606;49.154;9.280;2022-09-01T06:24:19;14.23;;;12.52;;
13079;SDS011;6606;49.154;9.280;2022-09-01T06:26:45;12.40;;;11.13;;
13079;SDS011;6606;49.154;9.280;2022-09-01T06:29:12;11.80;;;10.60;;
13079;SDS011;6606;49.154;9.280;2022-09-01T06:31:44;13.07;;;11.77;;
13079;SDS011;6606;49.154;9.280;2022-09-01T06:34:16;13.07;;;11.68;;
13079;SDS011;6606;49.154;9.280;2022-09-01T06:36:45;11.52;;;10.25;;
13079;SDS011;6606;49.154;9.280;2022-09-01T06:39:14;12.50;;;11.25;;
13079;SDS011;6606;49.154;9.280;2022-09-01T06:41:49;12.60;;;9.43;;
13079;SDS011;6606;49.154;9.280;2022-09-01T06:44:20;13.82;;;10.98;;
13079;SDS011;6606;49.154;9.280;2022-09-01T06:46:56;11.98;;;10.68;;
13079;SDS011;6606;49.154;9.280;2022-09-01T06:49:24;12.00;;;10.80;;
13079;SDS011;6606;49.154;9.280;2022-09-01T06:51:56;12.77;;;10.10;;
13079;SDS011;6606;49.154;9.280;2022-09-01T06:54:24;13.70;;;11.15;;
13079;SDS011;6606;49.154;9.280;2022-09-01T06:56:52;10.82;;;9.73;;
13079;SDS011;6606;49.154;9.280;2022-09-01T06:59:20;11.70;;;10.50;;
13079;SDS011;6606;49.154;9.280;2022-09-01T07:01:48;11.27;;;10.18;;
13079;SDS011;6606;49.154;9.280;2022-09-01T07:04:18;11.07;;;9.90;;
13079;SDS011;6606;49.154;9.280;2022-09-01T07:06:52;9.20;;;8.35;;
13079;SDS011;6606;49.154;9.280;2022-09-01T07:09:33;10.55;;;9.45;;
13079;SDS011;6606;49.154;9.280;2022-09-01T07:12:19;9.65;;;8.38;;
13079;SDS011;6606;49.154;9.280;2022-09-01T07:14:48;8.80;;;7.90;;
13079;SDS011;6606;49.154;9.280;2022-09-01T07:17:14;9.85;;;8.38;;
13079;SDS011;6606;49.154;9.280;2022-09-01T07:19:41;8.10;;;7.30;;
13079;SDS011;6606;49.154;9.280;2022-09-01T07:22:08;8.25;;;6.82;;
13079;SDS011;6606;49.154;9.280;2022-09-01T07:24:41;7.80;;;6.32;;
13079;SDS011;6606;49.154;9.280;2022-09-01T07:27:33;6.28;;;5.68;;
13079;SDS011;6606;49.154;9.280;2022-09-01T07:30:00;6.45;;;5.18;;
13079;SDS011;6606;49.154;9.280;2022-09-01T07:32:27;5.47;;;4.97;;
13079;SDS011;6606;49.154;9.280;2022-09-01T07:34:56;5.85;;;4.75;;
13079;SDS011;6606;49.154;9.280;2022-09-01T07:37:23;5.95;;;5.40;;
13079;SDS011;6606;49.154;9.280;2022-09-01T07:39:52;5.18;;;4.72;;
13079;SDS011;6606;49.154;9.280;2022-09-01T07:42:38;5.72;;;5.22;;
13079;SDS011;6606;49.154;9.280;2022-09-01T07:45:23;6.10;;;5.50;;
13079;SDS011;6606;49.154;9.280;2022-09-01T07:48:02;7.80;;;7.10;;
13079;SDS011;6606;49.154;9.280;2022-09-01T07:50:35;8.40;;;7.60;;
13079;SDS011;6606;49.154;9.280;2022-09-01T07:53:08;8.75;;;7.85;;
13079;SDS011;6606;49.154;9.280;2022-09-01T07:55:38;9.75;;;8.75;;
13079;SDS011;6606;49.154;9.280;2022-09-01T07:58:07;9.48;;;8.32;;
13079;SDS011;6606;49.154;9.280;2022-09-01T08:00:33;8.93;;;8.02;;
13079;SDS011;6606;49.154;9.280;2022-09-01T08:03:04;9.98;;;8.98;;
13079;SDS011;6606;49.154;9.280;2022-09-01T08:05:32;9.70;;;8.80;;
13079;SDS011;6606;49.154;9.280;2022-09-01T08:08:00;9.82;;;8.77;;
13079;SDS011;6606;49.154;9.280;2022-09-01T08:10:31;10.82;;;9.82;;
13079;SDS011;6606;49.154;9.280;2022-09-01T08:12:58;9.80;;;8.88;;
13079;SDS011;6606;49.154;9.280;2022-09-01T08:15:26;10.07;;;9.18;;
13079;SDS011;6606;49.154;9.280;2022-09-01T08:17:54;11.93;;;10.73;;
13079;SDS011;6606;49.154;9.280;2022-09-01T08:20:23;10.25;;;9.25;;
13079;SDS011;6606;49.154;9.280;2022-09-01T08:22:52;12.55;;;10.13;;
13079;SDS011;6606;49.154;9.280;2022-09-01T08:25:30;11.05;;;9.05;;
13079;SDS011;6606;49.154;9.280;2022-09-01T08:28:00;11.10;;;10.10;;
13079;SDS011;6606;49.154;9.280;2022-09-01T08:30:29;10.85;;;9.32;;
13079;SDS011;6606;49.154;9.280;2022-09-01T08:32:56;9.27;;;8.48;;
13079;SDS011;6606;49.154;9.280;2022-09-01T08:35:25;8.98;;;8.07;;
13079;SDS011;6606;49.154;9.280;2022-09-01T08:37:54;8.57;;;7.78;;
13079;SDS011;6606;49.154;9.280;2022-09-01T08:40:24;7.85;;;7.15;;
13079;SDS011;6606;49.154;9.280;2022-09-01T08:42:52;10.52;;;9.43;;
13079;SDS011;6606;49.154;9.280;2022-09-01T08:45:35;9.98;;;8.90;;
13079;SDS011;6606;49.154;9.280;2022-09-01T08:48:11;11.15;;;9.63;;
13079;SDS011;6606;49.154;9.280;2022-09-01T08:50:41;10.75;;;9.07;;
13079;SDS011;6606;49.154;9.280;2022-09-01T08:53:21;9.07;;;8.18;;
13079;SDS011;6606;49.154;9.280;2022-09-01T08:55:54;13.13;;;8.80;;
13079;SDS011;6606;49.154;9.280;2022-09-01T08:58:23;9.85;;;8.27;;
13079;SDS011;6606;49.154;9.280;2022-09-01T09:01:14;10.60;;;7.57;;
13079;SDS011;6606;49.154;9.280;2022-09-01T09:03:47;8.35;;;6.68;;
13079;SDS011;6606;49.154;9.280;2022-09-01T09:06:31;7.13;;;6.35;;
13079;SDS011;6606;49.154;9.280;2022-09-01T09:09:05;7.40;;;6.65;;
13079;SDS011;6606;49.154;9.280;2022-09-01T09:11:40;6.82;;;5.90;;
13079;SDS011;6606;49.154;9.280;2022-09-01T09:14:41;6.68;;;5.88;;
13079;SDS011;6606;49.154;9.280;2022-09-01T09:17:21;7.75;;;5.32;;
13079;SDS011;6606;49.154;9.280;2022-09-01T09:19:50;6.15;;;5.25;;
13079;SDS011;6606;49.154;9.280;2022-09-01T09:22:18;5.28;;;4.47;;
13079;SDS011;6606;49.154;9.280;2022-09-01T09:24:45;7.18;;;5.13;;
13079;SDS011;6606;49.154;9.280;2022-09-01T09:27:17;5.55;;;5.03;;
13079;SDS011;6606;49.154;9.280;2022-09-01T09:29:46;8.65;;;4.70;;
13079;SDS011;6606;49.154;9.280;2022-09-01T09:32:15;7.47;;;5.85;;
13079;SDS011;6606;49.154;9.280;2022-09-01T09:34:43;8.48;;;6.40;;
13079;SDS011;6606;49.154;9.280;2022-09-01T09:37:20;6.43;;;5.80;;
13079;SDS011;6606;49.154;9.280;2022-09-01T09:40:09;8.02;;;5.40;;
13079;SDS011;6606;49.154;9.280;2022-09-01T09:42:39;6.20;;;5.60;;
13079;SDS011;6606;49.154;9.280;2022-09-01T09:45:15;5.75;;;5.15;;
13079;SDS011;6606;49.154;9.280;2022-09-01T09:47:49;7.22;;;4.97;;
13079;SDS011;6606;49.154;9.280;2022-09-01T09:50:19;6.07;;;5.00;;
13079;SDS011;6606;49.154;9.280;2022-09-01T09:52:48;5.13;;;4.63;;
13079;SDS011;6606;49.154;9.280;2022-09-01T09:55:18;4.88;;;4.35;;
13079;SDS011;6606;49.154;9.280;2022-09-01T09:57:48;5.65;;;4.25;;
13079;SDS011;6606;49.154;9.280;2022-09-01T10:00:18;5.15;;;4.22;;
13079;SDS011;6606;49.154;9.280;2022-09-01T10:02:50;4.68;;;4.20;;
13079;SDS011;6606;49.154;9.280;2022-09-01T10:05:36;4.82;;;3.88;;
13079;SDS011;6606;49.154;9.280;2022-09-01T10:08:06;4.65;;;4.20;;
13079;SDS011;6606;49.154;9.280;2022-09-01T10:10:39;4.38;;;3.97;;
13079;SDS011;6606;49.154;9.280;2022-09-01T10:13:08;4.85;;;4.38;;
13079;SDS011;6606;49.154;9.280;2022-09-01T10:15:38;6.50;;;3.95;;
13079;SDS011;6606;49.154;9.280;2022-09-01T10:18:08;4.20;;;3.80;;
13079;SDS011;6606;49.154;9.280;2022-09-01T10:20:40;4.47;;;4.07;;
13079;SDS011;6606;49.154;9.280;2022-09-01T10:23:12;4.25;;;3.60;;
13079;SDS011;6606;49.154;9.280;2022-09-01T10:25:39;4.40;;;4.00;;
13079;SDS011;6606;49.154;9.280;2022-09-01T10:28:08;4.30;;;3.90;;
13079;SDS011;6606;49.154;9.280;2022-09-01T10:30:38;4.97;;;3.80;;
13079;SDS011;6606;49.154;9.280;2022-09-01T10:33:07;5.07;;;3.90;;
13079;SDS011;6606;49.154;9.280;2022-09-01T10:35:36;4.00;;;3.60;;
13079;SDS011;6606;49.154;9.280;2022-09-01T10:38:09;4.20;;;3.80;;
13079;SDS011;6606;49.154;9.280;2022-09-01T10:40:40;3.88;;;3.45;;
13079;SDS011;6606;49.154;9.280;2022-09-01T10:43:21;3.75;;;3.45;;
13079;SDS011;6606;49.154;9.280;2022-09-01T10:45:58;3.90;;;3.60;;
13079;SDS011;6606;49.154;9.280;2022-09-01T10:48:25;4.78;;;3.80;;
13079;SDS011;6606;49.154;9.280;2022-09-01T10:53:55;4.80;;;3.85;;
13079;SDS011;6606;49.154;9.280;2022-09-01T10:56:25;4.25;;;3.85;;
13079;SDS011;6606;49.154;9.280;2022-09-01T10:59:05;5.25;;;4.20;;
13079;SDS011;6606;49.154;9.280;2022-09-01T11:07:36;3.58;;;3.28;;
13079;SDS011;6606;49.154;9.280;2022-09-01T11:10:21;4.75;;;3.38;;
13079;SDS011;6606;49.154;9.280;2022-09-01T11:13:01;4.03;;;3.17;;
13079;SDS011;6606;49.154;9.280;2022-09-01T11:15:44;3.30;;;3.00;;
13079;SDS011;6606;49.154;9.280;2022-09-01T11:18:13;4.03;;;3.00;;
13079;SDS011;6606;49.154;9.280;2022-09-01T11:20:42;3.50;;;3.20;;
13079;SDS011;6606;49.154;9.280;2022-09-01T11:23:11;5.30;;;3.40;;
13079;SDS011;6606;49.154;9.280;2022-09-01T11:25:48;3.70;;;3.38;;
13079;SDS011;6606;49.154;9.280;2022-09-01T11:31:13;4.60;;;3.40;;
13079;SDS011;6606;49.154;9.280;2022-09-01T11:33:46;3.55;;;3.10;;
13079;SDS011;6606;49.154;9.280;2022-09-01T11:36:29;3.58;;;3.10;;
13079;SDS011;6606;49.154;9.280;2022-09-01T11:39:04;3.45;;;3.05;;
13079;SDS011;6606;49.154;9.280;2022-09-01T11:41:34;2.88;;;2.67;;
13079;SDS011;6606;49.154;9.280;2022-09-01T11:44:16;3.03;;;2.83;;
13079;SDS011;6606;49.154;9.280;2022-09-01T11:46:49;3.25;;;2.95;;
13079;SDS011;6606;49.154;9.280;2022-09-01T11:49:24;3.03;;;2.75;;
13079;SDS011;6606;49.154;9.280;2022-09-01T11:51:53;3.00;;;2.70;;
13079;SDS011;6606;49.154;9.280;2022-09-01T11:54:21;3.10;;;2.80;;
13079;SDS011;6606;49.154;9.280;2022-09-01T11:56:50;3.83;;;2.92;;
13079;SDS011;6606;49.154;9.280;2022-09-01T11:59:30;3.13;;;2.83;;
13079;SDS011;6606;49.154;9.280;2022-09-01T12:01:58;3.08;;;2.80;;
13079;SDS011;6606;49.154;9.280;2022-09-01T12:04:29;3.80;;;3.10;;
13079;SDS011;6606;49.154;9.280;2022-09-01T12:06:58;4.15;;;3.13;;
13079;SDS011;6606;49.154;9.280;2022-09-01T12:09:31;3.35;;;3.05;;
13079;SDS011;6606;49.154;9.280;2022-09-01T12:12:01;3.45;;;3.15;;
13079;SDS011;6606;49.154;9.280;2022-09-01T12:14:28;3.13;;;2.83;;
13079;SDS011;6606;49.154;9.280;2022-09-01T12:16:55;3.65;;;3.00;;
13079;SDS011;6606;49.154;9.280;2022-09-01T12:19:25;3.20;;;3.00;;
13079;SDS011;6606;49.154;9.280;2022-09-01T12:21:55;5.75;;;3.20;;
13079;SDS011;6606;49.154;9.280;2022-09-01T12:24:26;4.03;;;2.85;;
13079;SDS011;6606;49.154;9.280;2022-09-01T12:26:55;3.10;;;2.80;;
13079;SDS011;6606;49.154;9.280;2022-09-01T12:29:24;3.40;;;3.10;;
13079;SDS011;6606;49.154;9.280;2022-09-01T12:31:51;3.60;;;2.88;;
13079;SDS011;6606;49.154;9.280;2022-09-01T12:34:27;3.10;;;2.80;;
13079;SDS011;6606;49.154;9.280;2022-09-01T12:37:03;4.88;;;3.20;;
13079;SDS011;6606;49.154;9.280;2022-09-01T12:39:32;3.05;;;2.78;;
13079;SDS011;6606;49.154;9.280;2022-09-01T12:42:03;3.50;;;3.13;;
13079;SDS011;6606;49.154;9.280;2022-09-01T12:44:41;4.40;;;2.75;;
13079;SDS011;6606;49.154;9.280;2022-09-01T12:47:11;3.17;;;2.72;;
13079;SDS011;6606;49.154;9.280;2022-09-01T12:49:41;4.78;;;3.05;;
13079;SDS011;6606;49.154;9.280;2022-09-01T12:54:39;3.53;;;3.20;;
13079;SDS011;6606;49.154;9.280;2022-09-01T12:56:29;4.97;;;2.88;;
13079;SDS011;6606;49.154;9.280;2022-09-01T12:59:05;3.85;;;2.83;;
13079;SDS011;6606;49.154;9.280;2022-09-01T13:01:35;2.70;;;2.50;;
13079;SDS011;6606;49.154;9.280;2022-09-01T13:04:06;2.85;;;2.65;;
13079;SDS011;6606;49.154;9.280;2022-09-01T13:06:36;3.17;;;2.70;;
13079;SDS011;6606;49.154;9.280;2022-09-01T13:09:03;3.88;;;2.72;;
13079;SDS011;6606;49.154;9.280;2022-09-01T13:11:31;2.60;;;2.40;;
13079;SDS011;6606;49.154;9.280;2022-09-01T13:13:58;2.50;;;2.30;;
13079;SDS011;6606;49.154;9.280;2022-09-01T13:16:25;2.58;;;2.38;;
13079;SDS011;6606;49.154;9.280;2022-09-01T13:18:52;2.55;;;2.20;;
13079;SDS011;6606;49.154;9.280;2022-09-01T13:21:19;3.40;;;2.58;;
13079;SDS011;6606;49.154;9.280;2022-09-01T13:23:46;3.67;;;2.53;;
13079;SDS011;6606;49.154;9.280;2022-09-01T13:26:13;5.43;;;2.53;;
13079;SDS011;6606;49.154;9.280;2022-09-01T13:28:41;5.10;;;2.67;;
13079;SDS011;6606;49.154;9.280;2022-09-01T13:31:09;3.10;;;2.40;;
13079;SDS011;6606;49.154;9.280;2022-09-01T13:33:35;2.78;;;2.47;;
13079;SDS011;6606;49.154;9.280;2022-09-01T13:36:02;2.58;;;2.38;;
13079;SDS011;6606;49.154;9.280;2022-09-01T13:38:30;3.92;;;2.47;;
13079;SDS011;6606;49.154;9.280;2022-09-01T13:40:57;3.05;;;2.70;;
13079;SDS011;6606;49.154;9.280;2022-09-01T13:43:25;2.63;;;2.42;;
13079;SDS011;6606;49.154;9.280;2022-09-01T13:45:54;2.53;;;2.33;;
13079;SDS011;6606;49.154;9.280;2022-09-01T13:48:20;2.88;;;2.55;;
13079;SDS011;6606;49.154;9.280;2022-09-01T13:50:49;2.95;;;2.55;;
13079;SDS011;6606;49.154;9.280;2022-09-01T13:53:17;3.08;;;2.60;;
13079;SDS011;6606;49.154;9.280;2022-09-01T13:55:45;3.03;;;2.20;;
13079;SDS011;6606;49.154;9.280;2022-09-01T13:58:13;3.28;;;2.83;;
13079;SDS011;6606;49.154;9.280;2022-09-01T14:00:42;2.95;;;2.45;;
13079;SDS011;6606;49.154;9.280;2022-09-01T14:03:12;2.67;;;2.30;;
13079;SDS011;6606;49.154;9.280;2022-09-01T14:05:43;3.13;;;2.33;;
13079;SDS011;6606;49.154;9.280;2022-09-01T14:08:11;3.90;;;2.42;;
13079;SDS011;6606;49.154;9.280;2022-09-01T14:10:41;2.85;;;2.28;;
13079;SDS011;6606;49.154;9.280;2022-09-01T14:13:10;3.22;;;2.30;;
13079;SDS011;6606;49.154;9.280;2022-09-01T14:15:37;2.88;;;2.20;;
13079;SDS011;6606;49.154;9.280;2022-09-01T14:18:04;2.20;;;2.00;;
13079;SDS011;6606;49.154;9.280;2022-09-01T14:20:33;3.10;;;1.98;;
13079;SDS011;6606;49.154;9.280;2022-09-01T14:23:03;3.22;;;2.25;;
13079;SDS011;6606;49.154;9.280;2022-09-01T14:25:32;4.43;;;2.10;;
13079;SDS011;6606;49.154;9.280;2022-09-01T14:28:00;2.83;;;2.10;;
13079;SDS011;6606;49.154;9.280;2022-09-01T14:30:28;2.42;;;1.90;;
13079;SDS011;6606;49.154;9.280;2022-09-01T14:32:57;2.25;;;2.03;;
13079;SDS011;6606;49.154;9.280;2022-09-01T14:35:24;4.07;;;2.22;;
13079;SDS011;6606;49.154;9.280;2022-09-01T14:37:52;2.75;;;2.13;;
13079;SDS011;6606;49.154;9.280;2022-09-01T14:40:20;3.25;;;2.20;;
13079;SDS011;6606;49.154;9.280;2022-09-01T14:42:49;3.17;;;2.08;;
13079;SDS011;6606;49.154;9.280;2022-09-01T14:45:17;8.07;;;2.20;;
13079;SDS011;6606;49.154;9.280;2022-09-01T14:47:46;2.15;;;1.95;;
13079;SDS011;6606;49.154;9.280;2022-09-01T14:50:13;2.10;;;1.90;;
13079;SDS011;6606;49.154;9.280;2022-09-01T14:52:41;2.22;;;2.03;;
13079;SDS011;6606;49.154;9.280;2022-09-01T14:55:09;2.40;;;2.20;;
13079;SDS011;6606;49.154;9.280;2022-09-01T14:57:36;2.35;;;2.00;;
13079;SDS011;6606;49.154;9.280;2022-09-01T15:00:04;3.75;;;1.80;;
13079;SDS011;6606;49.154;9.280;2022-09-01T15:02:34;2.17;;;1.98;;
13079;SDS011;6606;49.154;9.280;2022-09-01T15:05:01;2.10;;;1.90;;
13079;SDS011;6606;49.154;9.280;2022-09-01T15:07:28;2.22;;;1.90;;
13079;SDS011;6606;49.154;9.280;2022-09-01T15:09:54;2.95;;;2.15;;
13079;SDS011;6606;49.154;9.280;2022-09-01T15:12:24;4.50;;;2.20;;
13079;SDS011;6606;49.154;9.280;2022-09-01T15:14:55;2.58;;;2.08;;
13079;SDS011;6606;49.154;9.280;2022-09-01T15:17:21;2.25;;;2.05;;
13079;SDS011;6606;49.154;9.280;2022-09-01T15:19:48;2.25;;;2.05;;
13079;SDS011;6606;49.154;9.280;2022-09-01T15:22:15;2.65;;;2.20;;
13079;SDS011;6606;49.154;9.280;2022-09-01T15:24:42;2.30;;;2.10;;